createdAt,value
2022-11-22T00:00:20.937Z,18.38
2022-11-22T00:02:48.434Z,16.90
2022-11-22T00:05:15.648Z,17.27
2022-11-22T00:07:43.111Z,18.83
2022-11-22T00:10:11.744Z,12.90
2022-11-22T00:12:39.223Z,12.13
2022-11-22T00:15:07.656Z,17.00
2022-11-22T00:17:35.149Z,15.50
2022-11-22T00:20:02.334Z,18.30
2022-11-22T00:22:29.591Z,24.77
2022-11-22T00:24:56.750Z,40.00
2022-11-22T00:27:23.935Z,19.88
2022-11-22T00:29:51.097Z,22.02
2022-11-22T00:32:18.315Z,24.75
2022-11-22T00:34:45.681Z,17.15
2022-11-22T00:37:12.914Z,17.63
2022-11-22T00:39:40.117Z,18.48
2022-11-22T00:42:07.375Z,25.38
2022-11-22T00:44:34.572Z,28.23
2022-11-22T00:47:01.781Z,24.27
2022-11-22T00:49:29.455Z,30.77
2022-11-22T00:51:56.899Z,25.23
2022-11-22T00:54:24.038Z,31.20
2022-11-22T00:56:51.212Z,28.55
2022-11-22T00:59:18.410Z,19.40
2022-11-22T01:01:45.700Z,31.95
2022-11-22T01:04:15.209Z,15.57
2022-11-22T01:06:42.633Z,23.50
2022-11-22T01:09:10.000Z,17.27
2022-11-22T01:11:37.245Z,17.83
2022-11-22T01:14:04.497Z,18.15
2022-11-22T01:16:31.673Z,23.27
2022-11-22T01:18:58.806Z,15.77
2022-11-22T01:21:25.991Z,13.90
2022-11-22T01:23:53.258Z,24.13
2022-11-22T01:26:20.524Z,14.85
2022-11-22T01:28:47.697Z,25.52
2022-11-22T01:31:14.920Z,25.23
2022-11-22T01:33:42.048Z,20.33
2022-11-22T01:36:09.249Z,16.90
2022-11-22T01:38:36.433Z,21.08
2022-11-22T01:41:03.662Z,20.45
2022-11-22T01:43:30.821Z,21.25
2022-11-22T01:45:58.833Z,16.65
2022-11-22T01:48:44.811Z,30.65
2022-11-22T01:51:15.344Z,14.48
2022-11-22T01:53:42.740Z,14.25
2022-11-22T01:56:12.538Z,21.95
2022-11-22T01:58:40.887Z,21.42
2022-11-22T02:01:08.432Z,17.23
2022-11-22T02:03:38.542Z,17.15
2022-11-22T02:06:06.276Z,19.00
2022-11-22T02:08:38.578Z,14.98
2022-11-22T02:11:06.262Z,15.95
2022-11-22T02:13:35.446Z,16.80
2022-11-22T02:16:02.634Z,13.77
2022-11-22T02:18:29.934Z,23.42
2022-11-22T02:20:58.675Z,14.75
2022-11-22T02:23:44.574Z,21.02
2022-11-22T02:26:12.997Z,16.35
2022-11-22T02:28:40.774Z,16.90
2022-11-22T02:31:08.024Z,13.25
2022-11-22T02:33:35.412Z,14.32
2022-11-22T02:36:02.960Z,16.65
2022-11-22T02:38:32.791Z,13.48
2022-11-22T02:41:05.185Z,16.20
2022-11-22T02:43:34.678Z,13.97
2022-11-22T02:46:09.872Z,15.85
2022-11-22T02:48:46.404Z,13.00
2022-11-22T02:51:17.336Z,11.50
2022-11-22T02:53:45.008Z,14.65
2022-11-22T02:56:12.365Z,13.98
2022-11-22T02:58:39.541Z,9.93
2022-11-22T03:01:06.840Z,18.63
2022-11-22T03:03:34.216Z,11.13
2022-11-22T03:06:02.579Z,15.48
2022-11-22T03:08:30.282Z,13.20
2022-11-22T03:10:59.073Z,10.07
2022-11-22T03:13:26.453Z,16.10
2022-11-22T03:15:53.745Z,11.70
2022-11-22T03:18:20.997Z,11.57
2022-11-22T03:20:48.133Z,11.48
2022-11-22T03:23:15.803Z,15.02
2022-11-22T03:25:43.211Z,14.93
2022-11-22T03:28:10.477Z,10.30
2022-11-22T03:30:41.427Z,11.63
2022-11-22T03:33:08.658Z,15.25
2022-11-22T03:35:35.796Z,10.98
2022-11-22T03:38:02.992Z,12.40
2022-11-22T03:40:30.396Z,8.90
2022-11-22T03:43:03.851Z,12.55
2022-11-22T03:45:31.626Z,9.70
2022-11-22T03:47:58.866Z,11.32
2022-11-22T03:50:26.077Z,10.60
2022-11-22T03:52:53.249Z,6.95
2022-11-22T03:55:23.256Z,10.95
2022-11-22T03:57:50.433Z,8.05
2022-11-22T04:00:17.703Z,9.68
2022-11-22T04:02:45.040Z,10.23
2022-11-22T04:05:12.264Z,10.25
2022-11-22T04:07:39.518Z,9.50
2022-11-22T04:10:07.194Z,6.55
2022-11-22T04:12:34.687Z,10.43
2022-11-22T04:15:08.021Z,9.07
2022-11-22T04:20:28.574Z,6.30
2022-11-22T04:22:57.189Z,7.30
2022-11-22T04:25:25.147Z,7.75
2022-11-22T04:27:52.354Z,16.10
2022-11-22T04:30:20.892Z,10.05
2022-11-22T04:32:48.464Z,8.75
2022-11-22T04:35:16.412Z,9.55
2022-11-22T04:37:43.797Z,6.95
2022-11-22T04:40:11.282Z,11.75
2022-11-22T04:42:57.232Z,10.52
2022-11-22T04:45:27.551Z,8.48
2022-11-22T04:48:00.825Z,10.00
2022-11-22T04:50:48.372Z,8.80
2022-11-22T04:53:16.545Z,6.80
2022-11-22T04:55:45.351Z,7.55
2022-11-22T04:58:12.982Z,5.20
2022-11-22T05:00:40.188Z,10.30
2022-11-22T05:03:07.474Z,6.30
2022-11-22T05:05:38.763Z,4.13
2022-11-22T05:08:06.171Z,3.40
2022-11-22T05:10:53.744Z,4.03
2022-11-22T05:13:22.272Z,2.75
2022-11-22T05:15:51.350Z,2.50
2022-11-22T05:18:19.431Z,5.28
2022-11-22T05:20:47.119Z,2.58
2022-11-22T05:23:33.496Z,6.20
2022-11-22T05:26:01.189Z,4.40
2022-11-22T05:28:29.432Z,8.27
2022-11-22T05:30:56.826Z,4.63
2022-11-22T05:33:24.287Z,7.63
2022-11-22T05:35:51.568Z,3.60
2022-11-22T05:38:18.871Z,3.47
2022-11-22T05:40:46.070Z,3.60
2022-11-22T05:43:13.590Z,6.40
2022-11-22T05:45:40.816Z,4.80
2022-11-22T05:48:08.216Z,3.75
2022-11-22T05:50:35.583Z,5.53
2022-11-22T05:53:03.468Z,4.20
2022-11-22T05:55:31.407Z,4.28
2022-11-22T05:58:02.357Z,4.00
2022-11-22T06:00:30.128Z,3.80
2022-11-22T06:03:01.588Z,25.02
2022-11-22T06:05:28.872Z,11.85
2022-11-22T06:08:00.628Z,16.42
2022-11-22T06:10:28.032Z,21.35
2022-11-22T06:12:55.887Z,29.67
2022-11-22T06:15:23.123Z,11.40
2022-11-22T06:17:50.333Z,15.90
2022-11-22T06:20:18.137Z,17.77
2022-11-22T06:22:45.507Z,14.75
2022-11-22T06:25:12.888Z,44.72
2022-11-22T06:27:40.225Z,8.98
2022-11-22T06:30:07.841Z,6.78
2022-11-22T06:32:35.535Z,5.75
2022-11-22T06:35:03.785Z,8.55
2022-11-22T06:37:31.245Z,5.75
2022-11-22T06:39:58.452Z,6.57
2022-11-22T06:42:25.642Z,7.78
2022-11-22T06:44:53.136Z,4.32
2022-11-22T06:47:20.339Z,4.90
2022-11-22T06:49:47.517Z,4.57
2022-11-22T06:52:14.774Z,4.63
2022-11-22T06:54:42.069Z,6.50
2022-11-22T06:57:09.301Z,6.68
2022-11-22T06:59:36.916Z,7.18
2022-11-22T07:02:06.588Z,6.05
2022-11-22T07:04:34.271Z,5.80
2022-11-22T07:07:01.749Z,6.35
2022-11-22T07:09:29.270Z,5.18
2022-11-22T07:11:56.783Z,4.70
2022-11-22T07:14:23.929Z,8.75
2022-11-22T07:16:51.227Z,7.18
2022-11-22T07:19:18.411Z,4.47
2022-11-22T07:21:45.522Z,7.55
2022-11-22T07:24:12.853Z,13.48
2022-11-22T07:26:40.011Z,4.90
2022-11-22T07:29:07.237Z,11.20
2022-11-22T07:31:35.072Z,7.47
2022-11-22T07:34:02.454Z,5.13
2022-11-22T07:36:30.417Z,4.47
2022-11-22T07:38:57.641Z,4.63
2022-11-22T07:41:25.098Z,14.27
2022-11-22T07:43:53.254Z,7.32
2022-11-22T07:46:29.963Z,9.43
2022-11-22T07:48:57.569Z,6.07
2022-11-22T07:51:24.766Z,3.60
2022-11-22T07:53:52.299Z,4.18
2022-11-22T07:56:19.850Z,5.25
2022-11-22T07:58:47.070Z,11.30
2022-11-22T08:01:16.752Z,6.70
2022-11-22T08:03:44.394Z,7.20
2022-11-22T08:06:12.679Z,4.55
2022-11-22T08:08:39.983Z,5.53
2022-11-22T08:11:07.862Z,10.13
2022-11-22T08:13:35.459Z,5.97
2022-11-22T08:16:07.406Z,8.57
2022-11-22T08:18:35.364Z,7.85
2022-11-22T08:21:14.169Z,6.28
2022-11-22T08:23:42.170Z,6.55
2022-11-22T08:26:11.187Z,5.72
2022-11-22T08:28:38.638Z,8.30
2022-11-22T08:31:08.715Z,7.07
2022-11-22T08:33:36.350Z,7.90
2022-11-22T08:36:03.749Z,7.70
2022-11-22T08:38:30.988Z,6.45
2022-11-22T08:40:58.143Z,4.95
2022-11-22T08:43:25.860Z,6.50
2022-11-22T08:45:57.414Z,7.25
2022-11-22T08:48:28.068Z,7.90
2022-11-22T08:50:56.876Z,10.23
2022-11-22T08:53:24.630Z,8.48
2022-11-22T08:55:51.827Z,5.97
2022-11-22T08:58:19.404Z,7.15
2022-11-22T09:00:46.820Z,8.18
2022-11-22T09:03:14.017Z,8.25
2022-11-22T09:08:31.293Z,10.02
2022-11-22T09:11:08.859Z,9.43
2022-11-22T09:13:36.160Z,8.60
2022-11-22T09:16:04.547Z,8.52
2022-11-22T09:18:35.043Z,7.30
2022-11-22T09:21:06.884Z,11.15
2022-11-22T09:23:34.716Z,7.80
2022-11-22T09:26:03.625Z,8.63
2022-11-22T09:28:30.857Z,9.20
2022-11-22T09:31:05.811Z,9.05
2022-11-22T09:33:34.159Z,8.27
2022-11-22T09:36:02.327Z,9.18
2022-11-22T09:38:30.234Z,7.40
2022-11-22T09:40:57.817Z,13.20
2022-11-22T09:43:42.512Z,7.18
2022-11-22T09:46:09.760Z,7.70
2022-11-22T09:49:00.321Z,9.23
2022-11-22T09:51:30.586Z,7.72
2022-11-22T09:54:18.122Z,6.78
2022-11-22T09:56:45.631Z,7.50
2022-11-22T09:59:19.555Z,10.57
2022-11-22T10:01:50.953Z,8.30
2022-11-22T10:04:21.432Z,7.07
2022-11-22T10:06:54.896Z,10.55
2022-11-22T10:09:41.785Z,14.38
2022-11-22T10:12:12.157Z,6.15
2022-11-22T10:14:48.889Z,4.75
2022-11-22T10:17:24.709Z,5.68
2022-11-22T10:19:54.796Z,4.80
2022-11-22T10:22:24.775Z,6.90
2022-11-22T10:24:52.012Z,5.80
2022-11-22T10:27:19.166Z,9.20
2022-11-22T10:29:56.043Z,13.45
2022-11-22T10:32:26.294Z,10.98
2022-11-22T10:35:02.817Z,6.55
2022-11-22T10:37:36.204Z,6.13
2022-11-22T10:40:15.639Z,7.15
2022-11-22T10:43:02.237Z,6.55
2022-11-22T10:45:49.645Z,7.97
2022-11-22T10:48:24.678Z,34.15
2022-11-22T10:51:01.370Z,10.98
2022-11-22T10:53:32.322Z,7.45
2022-11-22T10:56:09.770Z,14.00
2022-11-22T10:58:46.209Z,8.20
2022-11-22T11:01:29.748Z,6.75
2022-11-22T11:03:59.991Z,6.70
2022-11-22T11:06:56.894Z,7.30
2022-11-22T11:12:19.620Z,5.93
2022-11-22T11:14:47.931Z,46.00
2022-11-22T11:17:18.590Z,11.38
2022-11-22T11:19:48.091Z,19.02
2022-11-22T11:23:06.625Z,20.80
2022-11-22T11:25:28.266Z,8.63
2022-11-22T11:27:57.633Z,9.82
2022-11-22T11:30:24.852Z,7.40
2022-11-22T11:32:56.264Z,5.90
2022-11-22T11:35:25.625Z,11.60
2022-11-22T11:37:52.772Z,6.82
2022-11-22T11:40:29.516Z,8.98
2022-11-22T11:43:16.939Z,13.40
2022-11-22T11:45:44.619Z,18.15
2022-11-22T11:48:28.146Z,7.35
2022-11-22T11:51:09.183Z,11.10
2022-11-22T11:53:36.616Z,8.13
2022-11-22T11:56:22.580Z,8.77
2022-11-22T11:58:54.478Z,13.30
2022-11-22T12:01:21.849Z,12.05
2022-11-22T12:03:56.575Z,6.32
2022-11-22T12:06:28.205Z,11.30
2022-11-22T12:08:55.939Z,10.93
2022-11-22T12:11:35.137Z,6.20
2022-11-22T12:14:20.602Z,8.75
2022-11-22T12:16:48.908Z,7.40
2022-11-22T12:22:24.226Z,8.85
2022-11-22T12:25:31.087Z,9.88
2022-11-22T12:27:51.742Z,5.63
2022-11-22T12:30:19.869Z,8.98
2022-11-22T12:33:07.404Z,6.93
2022-11-22T12:35:38.153Z,10.68
2022-11-22T12:38:12.230Z,7.50
2022-11-22T12:40:43.680Z,7.20
2022-11-22T12:43:23.375Z,12.63
2022-11-22T12:45:55.980Z,5.70
2022-11-22T12:48:23.738Z,6.68
2022-11-22T12:48:30.416Z,7.93
2022-11-22T12:51:01.219Z,6.78
2022-11-22T12:53:29.886Z,8.75
2022-11-22T12:56:05.068Z,8.93
2022-11-22T12:58:44.321Z,8.63
2022-11-22T13:01:19.145Z,10.57
2022-11-22T13:03:58.780Z,9.27
2022-11-22T13:06:28.586Z,6.75
2022-11-22T13:09:04.030Z,7.00
2022-11-22T13:11:32.186Z,4.93
2022-11-22T13:14:05.713Z,8.38
2022-11-22T13:19:01.673Z,8.27
2022-11-22T13:21:42.788Z,9.25
2022-11-22T13:24:12.978Z,9.77
2022-11-22T13:26:43.239Z,7.57
2022-11-22T13:29:22.687Z,8.15
2022-11-22T13:32:04.891Z,9.60
2022-11-22T13:34:32.957Z,10.15
2022-11-22T13:37:26.845Z,5.63
2022-11-22T13:39:54.143Z,11.43
2022-11-22T13:42:24.412Z,6.85
2022-11-22T13:44:57.687Z,8.63
2022-11-22T13:47:24.977Z,8.80
2022-11-22T13:49:53.968Z,9.45
2022-11-22T13:52:21.116Z,9.02
2022-11-22T13:54:48.383Z,9.25
2022-11-22T13:57:26.525Z,9.63
2022-11-22T14:00:15.168Z,7.93
2022-11-22T14:02:44.370Z,6.78
2022-11-22T14:05:23.890Z,8.40
2022-11-22T14:07:55.874Z,8.15
2022-11-22T14:10:48.060Z,7.57
2022-11-22T14:13:21.368Z,8.43
2022-11-22T14:15:48.711Z,10.90
2022-11-22T14:18:34.366Z,9.00
2022-11-22T14:21:05.724Z,13.35
2022-11-22T14:23:44.099Z,10.45
2022-11-22T14:26:14.434Z,12.50
2022-11-22T14:28:44.701Z,8.05
2022-11-22T14:31:26.077Z,8.15
2022-11-22T14:34:12.001Z,7.25
2022-11-22T14:36:39.190Z,14.45
2022-11-22T14:39:35.744Z,13.98
2022-11-22T14:42:03.095Z,8.98
2022-11-22T14:44:34.854Z,7.82
2022-11-22T14:47:14.790Z,5.47
2022-11-22T14:49:44.021Z,6.03
2022-11-22T14:52:20.601Z,12.27
2022-11-22T14:54:50.239Z,13.23
2022-11-22T14:57:19.669Z,7.53
2022-11-22T14:59:49.968Z,17.55
2022-11-22T15:02:37.946Z,13.60
2022-11-22T15:09:11.060Z,9.60
2022-11-22T15:09:14.435Z,8.45
2022-11-22T15:11:18.580Z,9.65
2022-11-22T15:13:45.910Z,10.40
2022-11-22T15:59:17.671Z,38.72
2022-11-22T16:01:45.161Z,27.67
2022-11-22T16:04:23.486Z,49.03
2022-11-22T16:06:51.598Z,26.65
2022-11-22T16:09:24.621Z,20.40
2022-11-22T16:11:54.632Z,32.78
2022-11-22T16:17:31.930Z,25.13
2022-11-22T16:20:18.150Z,22.25
2022-11-22T16:22:45.351Z,12.98
2022-11-22T16:25:50.154Z,15.27
2022-11-22T16:28:20.437Z,23.73
2022-11-22T16:30:47.903Z,17.05
2022-11-22T16:33:15.090Z,29.25
2022-11-22T16:35:42.276Z,19.90
2022-11-22T16:38:10.943Z,21.00
2022-11-22T16:40:42.726Z,15.13
2022-11-22T16:43:15.746Z,15.02
2022-11-22T16:45:43.574Z,18.52
2022-11-22T16:48:34.138Z,101.05
2022-11-22T16:51:04.506Z,22.63
2022-11-22T16:53:42.807Z,20.10
2022-11-22T16:56:15.664Z,31.25
2022-11-22T16:58:42.807Z,20.52
2022-11-22T17:01:12.272Z,31.50
2022-11-22T17:03:39.985Z,23.58
2022-11-22T17:06:07.262Z,26.42
2022-11-22T17:08:34.416Z,22.80
2022-11-22T17:11:01.623Z,34.33
2022-11-22T17:13:28.895Z,26.08
2022-11-22T17:15:57.055Z,44.53
2022-11-22T17:18:24.518Z,34.47
2022-11-22T17:20:51.765Z,38.72
2022-11-22T17:23:27.020Z,43.78
2022-11-22T17:25:54.369Z,34.25
2022-11-22T17:28:21.632Z,34.22
2022-11-22T17:30:48.967Z,38.55
2022-11-22T17:33:16.345Z,26.30
2022-11-22T17:35:43.510Z,22.33
2022-11-22T17:38:12.197Z,34.72
2022-11-22T17:40:39.585Z,26.98
2022-11-22T17:43:06.832Z,39.53
2022-11-22T17:45:34.861Z,31.70
2022-11-22T17:48:02.009Z,33.13
2022-11-22T17:50:29.214Z,35.85
2022-11-22T17:52:56.593Z,25.95
2022-11-22T17:55:26.355Z,28.10
2022-11-22T17:57:56.288Z,20.83
2022-11-22T18:00:29.708Z,23.73
2022-11-22T18:02:57.426Z,22.95
2022-11-22T18:05:24.688Z,24.63
2022-11-22T18:07:53.233Z,26.50
2022-11-22T18:10:20.529Z,20.20
2022-11-22T18:13:13.413Z,29.25
2022-11-22T18:15:34.934Z,29.15
2022-11-22T18:18:02.129Z,23.00
2022-11-22T18:20:29.318Z,21.92
2022-11-22T18:22:56.549Z,18.33
2022-11-22T18:25:23.805Z,20.10
2022-11-22T18:27:50.952Z,24.77
2022-11-22T18:30:18.154Z,28.88
2022-11-22T18:32:45.312Z,21.67
2022-11-22T18:35:12.688Z,20.52
2022-11-22T18:37:39.861Z,20.38
2022-11-22T18:40:07.433Z,28.73
2022-11-22T18:42:35.389Z,24.83
2022-11-22T18:45:02.953Z,31.30
2022-11-22T18:47:32.392Z,29.02
2022-11-22T18:50:01.108Z,26.70
2022-11-22T18:52:28.727Z,23.05
2022-11-22T18:54:56.267Z,23.67
2022-11-22T18:57:23.849Z,25.90
2022-11-22T18:59:51.021Z,39.85
2022-11-22T19:02:20.112Z,46.88
2022-11-22T19:04:49.577Z,46.05
2022-11-22T19:07:16.771Z,31.88
2022-11-22T19:09:44.033Z,36.55
2022-11-22T19:12:11.216Z,42.35
2022-11-22T19:14:38.894Z,29.77
2022-11-22T19:17:06.240Z,29.42
2022-11-22T19:19:33.430Z,30.88
2022-11-22T19:22:01.210Z,31.67
2022-11-22T19:24:28.763Z,32.40
2022-11-22T19:26:56.476Z,32.03
2022-11-22T19:29:23.920Z,28.58
2022-11-22T19:31:52.201Z,28.50
2022-11-22T19:34:19.994Z,23.27
2022-11-22T19:36:48.015Z,22.35
2022-11-22T19:39:25.063Z,25.42
2022-11-22T19:41:52.440Z,25.27
2022-11-22T19:44:20.167Z,24.50
2022-11-22T19:46:48.232Z,32.58
2022-11-22T19:51:58.720Z,27.65
2022-11-22T19:54:31.762Z,21.95
2022-11-22T19:59:35.779Z,21.13
2022-11-22T20:02:03.337Z,29.30
2022-11-22T20:04:30.666Z,24.65
2022-11-22T20:06:59.866Z,30.85
2022-11-22T20:09:27.072Z,21.80
2022-11-22T20:11:54.440Z,23.42
2022-11-22T20:14:22.581Z,24.80
2022-11-22T20:16:49.785Z,19.77
2022-11-22T20:19:16.978Z,17.67
2022-11-22T20:21:44.830Z,18.05
2022-11-22T20:24:13.853Z,21.35
2022-11-22T20:26:41.106Z,27.90
2022-11-22T20:29:11.836Z,20.48
2022-11-22T20:31:40.383Z,21.52
2022-11-22T20:34:07.788Z,23.58
2022-11-22T20:36:36.394Z,20.83
2022-11-22T20:39:09.713Z,17.63
2022-11-22T20:41:38.196Z,17.05
2022-11-22T20:44:05.601Z,17.38
2022-11-22T20:46:35.745Z,22.10
2022-11-22T20:49:03.019Z,19.30
2022-11-22T20:51:30.410Z,22.10
2022-11-22T20:53:57.794Z,15.30
2022-11-22T20:56:25.423Z,27.88
2022-11-22T20:58:52.684Z,22.60
2022-11-22T21:01:24.130Z,24.85
2022-11-22T21:03:51.781Z,23.52
2022-11-22T21:06:19.594Z,19.95
2022-11-22T21:08:46.905Z,24.30
2022-11-22T21:11:18.740Z,19.45
2022-11-22T21:13:47.268Z,29.15
2022-11-22T21:16:24.100Z,23.27
2022-11-22T21:18:56.301Z,25.00
2022-11-22T21:21:24.385Z,16.38
2022-11-22T21:23:52.919Z,15.57
2022-11-22T21:26:20.435Z,16.35
2022-11-22T21:28:47.607Z,15.10
2022-11-22T21:31:14.889Z,16.60
2022-11-22T21:33:42.793Z,14.30
2022-11-22T21:36:10.323Z,13.77
2022-11-22T21:38:40.711Z,16.50
2022-11-22T21:41:38.355Z,12.25
2022-11-22T21:43:57.412Z,17.20
2022-11-22T21:46:25.271Z,13.95
2022-11-22T21:48:52.564Z,16.90
2022-11-22T21:51:19.709Z,15.85
2022-11-22T21:53:49.745Z,20.67
2022-11-22T21:56:17.303Z,20.63
2022-11-22T21:58:45.003Z,16.67
2022-11-22T22:01:14.326Z,12.48
2022-11-22T22:03:41.894Z,17.73
2022-11-22T22:06:09.627Z,13.55
2022-11-22T22:08:36.893Z,15.20
2022-11-22T22:11:05.384Z,16.52
2022-11-22T22:13:33.067Z,13.85
2022-11-22T22:16:01.305Z,13.18
2022-11-22T22:18:32.515Z,14.20
2022-11-22T22:21:00.809Z,14.25
2022-11-22T22:23:28.112Z,19.15
2022-11-22T22:25:59.555Z,18.33
2022-11-22T22:28:27.976Z,16.73
2022-11-22T22:31:02.440Z,14.73
2022-11-22T22:33:29.880Z,15.80
2022-11-22T22:35:59.858Z,19.77
2022-11-22T22:38:27.550Z,13.60
2022-11-22T22:40:55.510Z,15.40
2022-11-22T22:43:26.550Z,11.32
2022-11-22T22:45:54.184Z,13.45
2022-11-22T22:48:21.375Z,14.75
2022-11-22T22:50:48.532Z,16.27
2022-11-22T22:53:15.711Z,13.15
2022-11-22T22:55:42.847Z,15.73
2022-11-22T22:58:12.171Z,10.80
2022-11-22T23:00:39.884Z,14.02
2022-11-22T23:03:07.235Z,14.48
2022-11-22T23:05:34.427Z,14.68
2022-11-22T23:08:01.670Z,12.75
2022-11-22T23:10:28.870Z,15.98
2022-11-22T23:12:56.039Z,10.80
2022-11-22T23:15:43.780Z,11.07
2022-11-22T23:18:10.497Z,9.85
2022-11-22T23:20:37.769Z,7.00
2022-11-22T23:23:05.007Z,11.35
2022-11-22T23:25:32.282Z,11.07
2022-11-22T23:27:59.681Z,13.88
2022-11-22T23:30:27.008Z,10.23
2022-11-22T23:32:54.168Z,8.00
2022-11-22T23:35:21.797Z,11.02
2022-11-22T23:37:48.966Z,11.45
2022-11-22T23:40:16.346Z,10.30
2022-11-22T23:42:43.497Z,12.32
2022-11-22T23:45:10.800Z,13.50
2022-11-22T23:47:38.020Z,12.88
2022-11-22T23:50:05.487Z,11.02
2022-11-22T23:52:32.664Z,14.23
2022-11-22T23:54:59.802Z,8.82
2022-11-22T23:57:26.954Z,12.05
2022-11-22T23:59:54.177Z,14.18
